sensor_id;sensor_type;location;lat;lon;timestamp;temperature;humidity
16174;DHT22;14031;50.158;8.626;2023-04-24T00:01:07;13.90;99.90
16174;DHT22;14031;50.158;8.626;2023-04-24T00:03:36;13.80;99.90
16174;DHT22;14031;50.158;8.626;2023-04-24T00:06:04;13.80;99.90
16174;DHT22;14031;50.158;8.626;2023-04-24T00:08:33;13.80;99.90
16174;DHT22;14031;50.158;8.626;2023-04-24T00:11:00;13.90;99.90
16174;DHT22;14031;50.158;8.626;2023-04-24T00:13:27;13.90;99.90
16174;DHT22;14031;50.158;8.626;2023-04-24T00:15:55;13.80;99.90
16174;DHT22;14031;50.158;8.626;2023-04-24T00:18:21;13.80;99.90
16174;DHT22;14031;50.158;8.626;2023-04-24T00:20:50;13.90;99.90
16174;DHT22;14031;50.158;8.626;2023-04-24T00:23:16;13.90;99.90
16174;DHT22;14031;50.158;8.626;2023-04-24T00:25:43;13.90;99.90
16174;DHT22;14031;50.158;8.626;2023-04-24T00:28:10;13.90;99.90
16174;DHT22;14031;50.158;8.626;2023-04-24T00:30:37;13.90;99.90
16174;DHT22;14031;50.158;8.626;2023-04-24T00:33:03;13.90;99.90
16174;DHT22;14031;50.158;8.626;2023-04-24T00:35:30;13.90;99.90
16174;DHT22;14031;50.158;8.626;2023-04-24T00:37:58;14.00;99.90
16174;DHT22;14031;50.158;8.626;2023-04-24T00:40:25;14.00;99.90
16174;DHT22;14031;50.158;8.626;2023-04-24T00:42:53;14.00;99.90
16174;DHT22;14031;50.158;8.626;2023-04-24T00:45:20;13.90;99.90
16174;DHT22;14031;50.158;8.626;2023-04-24T00:47:46;13.90;99.90
16174;DHT22;14031;50.158;8.626;2023-04-24T00:50:15;13.90;99.90
16174;DHT22;14031;50.158;8.626;2023-04-24T00:52:42;13.80;99.90
16174;DHT22;14031;50.158;8.626;2023-04-24T00:55:11;13.80;99.90
16174;DHT22;14031;50.158;8.626;2023-04-24T00:57:38;13.80;99.90
16174;DHT22;14031;50.158;8.626;2023-04-24T01:00:06;13.80;99.90
16174;DHT22;14031;50.158;8.626;2023-04-24T01:02:36;13.80;99.90
16174;DHT22;14031;50.158;8.626;2023-04-24T01:05:06;13.70;99.90
16174;DHT22;14031;50.158;8.626;2023-04-24T01:07:33;13.70;99.90
16174;DHT22;14031;50.158;8.626;2023-04-24T01:09:59;13.80;99.90
16174;DHT22;14031;50.158;8.626;2023-04-24T01:12:28;13.80;99.90
16174;DHT22;14031;50.158;8.626;2023-04-24T01:14:55;13.80;99.90
16174;DHT22;14031;50.158;8.626;2023-04-24T01:17:22;13.80;99.90
16174;DHT22;14031;50.158;8.626;2023-04-24T01:19:49;13.70;99.90
16174;DHT22;14031;50.158;8.626;2023-04-24T01:22:22;13.70;99.90
16174;DHT22;14031;50.158;8.626;2023-04-24T01:24:49;13.70;99.90
16174;DHT22;14031;50.158;8.626;2023-04-24T01:27:16;13.60;99.90
16174;DHT22;14031;50.158;8.626;2023-04-24T01:29:43;13.60;99.90
16174;DHT22;14031;50.158;8.626;2023-04-24T01:32:09;13.80;99.90
16174;DHT22;14031;50.158;8.626;2023-04-24T01:34:37;13.60;99.90
16174;DHT22;14031;50.158;8.626;2023-04-24T01:37:04;13.60;99.90
16174;DHT22;14031;50.158;8.626;2023-04-24T01:39:32;13.60;99.90
16174;DHT22;14031;50.158;8.626;2023-04-24T01:42:00;13.60;99.90
16174;DHT22;14031;50.158;8.626;2023-04-24T01:44:27;13.60;99.90
16174;DHT22;14031;50.158;8.626;2023-04-24T01:46:55;13.60;99.90
16174;DHT22;14031;50.158;8.626;2023-04-24T01:49:22;13.50;99.90
16174;DHT22;14031;50.158;8.626;2023-04-24T01:51:48;13.60;99.90
16174;DHT22;14031;50.158;8.626;2023-04-24T01:54:15;13.60;99.90
16174;DHT22;14031;50.158;8.626;2023-04-24T01:56:43;13.60;99.90
16174;DHT22;14031;50.158;8.626;2023-04-24T01:59:11;13.60;99.90
16174;DHT22;14031;50.158;8.626;2023-04-24T02:01:39;13.60;99.90
16174;DHT22;14031;50.158;8.626;2023-04-24T02:04:06;13.50;99.90
16174;DHT22;14031;50.158;8.626;2023-04-24T02:06:34;13.50;99.90
16174;DHT22;14031;50.158;8.626;2023-04-24T02:09:01;13.50;99.90
16174;DHT22;14031;50.158;8.626;2023-04-24T02:11:28;13.50;99.90
16174;DHT22;14031;50.158;8.626;2023-04-24T02:13:56;13.40;99.90
16174;DHT22;14031;50.158;8.626;2023-04-24T02:16:23;13.50;99.90
16174;DHT22;14031;50.158;8.626;2023-04-24T02:18:50;13.40;99.90
16174;DHT22;14031;50.158;8.626;2023-04-24T02:21:17;13.40;99.90
16174;DHT22;14031;50.158;8.626;2023-04-24T02:23:44;13.40;99.90
16174;DHT22;14031;50.158;8.626;2023-04-24T02:26:11;13.40;99.90
16174;DHT22;14031;50.158;8.626;2023-04-24T02:28:38;13.40;99.90
16174;DHT22;14031;50.158;8.626;2023-04-24T02:31:06;13.40;99.90
16174;DHT22;14031;50.158;8.626;2023-04-24T02:33:33;13.40;99.90
16174;DHT22;14031;50.158;8.626;2023-04-24T02:35:59;13.40;99.90
16174;DHT22;14031;50.158;8.626;2023-04-24T02:38:26;13.40;99.90
16174;DHT22;14031;50.158;8.626;2023-04-24T02:40:53;13.50;99.90
16174;DHT22;14031;50.158;8.626;2023-04-24T02:43:20;13.40;99.90
16174;DHT22;14031;50.158;8.626;2023-04-24T02:45:47;13.40;99.90
16174;DHT22;14031;50.158;8.626;2023-04-24T02:48:15;13.40;99.90
16174;DHT22;14031;50.158;8.626;2023-04-24T02:50:42;13.40;99.90
16174;DHT22;14031;50.158;8.626;2023-04-24T02:53:09;13.40;99.90
16174;DHT22;14031;50.158;8.626;2023-04-24T02:55:35;13.40;99.90
16174;DHT22;14031;50.158;8.626;2023-04-24T02:58:02;13.50;99.90
16174;DHT22;14031;50.158;8.626;2023-04-24T03:00:29;13.50;99.90
16174;DHT22;14031;50.158;8.626;2023-04-24T03:02:56;13.50;99.90
16174;DHT22;14031;50.158;8.626;2023-04-24T03:05:24;13.40;99.90
16174;DHT22;14031;50.158;8.626;2023-04-24T03:07:52;13.40;99.90
16174;DHT22;14031;50.158;8.626;2023-04-24T03:10:19;13.40;99.90
16174;DHT22;14031;50.158;8.626;2023-04-24T03:12:48;13.30;99.90
16174;DHT22;14031;50.158;8.626;2023-04-24T03:15:14;13.30;99.90
16174;DHT22;14031;50.158;8.626;2023-04-24T03:17:41;13.30;99.90
16174;DHT22;14031;50.158;8.626;2023-04-24T03:20:09;13.30;99.90
16174;DHT22;14031;50.158;8.626;2023-04-24T03:22:37;13.30;99.90
16174;DHT22;14031;50.158;8.626;2023-04-24T03:25:05;13.30;99.90
16174;DHT22;14031;50.158;8.626;2023-04-24T03:27:33;13.30;99.90
16174;DHT22;14031;50.158;8.626;2023-04-24T03:30:00;13.30;99.90
16174;DHT22;14031;50.158;8.626;2023-04-24T03:32:27;13.30;99.90
16174;DHT22;14031;50.158;8.626;2023-04-24T03:34:54;13.30;99.90
16174;DHT22;14031;50.158;8.626;2023-04-24T03:37:20;13.20;99.90
16174;DHT22;14031;50.158;8.626;2023-04-24T03:39:49;13.30;99.90
16174;DHT22;14031;50.158;8.626;2023-04-24T03:42:15;13.30;99.90
16174;DHT22;14031;50.158;8.626;2023-04-24T03:44:42;13.30;99.90
16174;DHT22;14031;50.158;8.626;2023-04-24T03:47:09;13.20;99.90
16174;DHT22;14031;50.158;8.626;2023-04-24T03:49:36;13.30;99.90
16174;DHT22;14031;50.158;8.626;2023-04-24T03:52:02;13.30;99.90
16174;DHT22;14031;50.158;8.626;2023-04-24T03:54:29;13.20;99.90
16174;DHT22;14031;50.158;8.626;2023-04-24T03:57:00;13.30;99.90
16174;DHT22;14031;50.158;8.626;2023-04-24T03:59:28;13.20;99.90
16174;DHT22;14031;50.158;8.626;2023-04-24T04:01:55;13.20;99.90
16174;DHT22;14031;50.158;8.626;2023-04-24T04:04:22;13.30;99.90
16174;DHT22;14031;50.158;8.626;2023-04-24T04:06:52;13.20;99.90
16174;DHT22;14031;50.158;8.626;2023-04-24T04:09:19;13.20;99.90
16174;DHT22;14031;50.158;8.626;2023-04-24T04:11:45;13.20;99.90
16174;DHT22;14031;50.158;8.626;2023-04-24T04:14:13;13.10;99.90
16174;DHT22;14031;50.158;8.626;2023-04-24T04:16:40;13.10;99.90
16174;DHT22;14031;50.158;8.626;2023-04-24T04:19:07;12.90;99.90
16174;DHT22;14031;50.158;8.626;2023-04-24T04:21:34;12.90;99.90
16174;DHT22;14031;50.158;8.626;2023-04-24T04:24:00;13.00;99.90
16174;DHT22;14031;50.158;8.626;2023-04-24T04:26:27;12.80;99.90
16174;DHT22;14031;50.158;8.626;2023-04-24T04:28:57;12.90;99.90
16174;DHT22;14031;50.158;8.626;2023-04-24T04:31:25;12.80;99.90
16174;DHT22;14031;50.158;8.626;2023-04-24T04:33:52;12.80;99.90
16174;DHT22;14031;50.158;8.626;2023-04-24T04:36:18;12.90;99.90
16174;DHT22;14031;50.158;8.626;2023-04-24T04:38:51;12.80;99.90
16174;DHT22;14031;50.158;8.626;2023-04-24T04:41:20;12.70;99.90
16174;DHT22;14031;50.158;8.626;2023-04-24T04:43:51;12.60;99.90
16174;DHT22;14031;50.158;8.626;2023-04-24T04:46:20;12.60;99.90
16174;DHT22;14031;50.158;8.626;2023-04-24T04:48:55;12.70;99.90
16174;DHT22;14031;50.158;8.626;2023-04-24T04:51:22;12.70;99.90
16174;DHT22;14031;50.158;8.626;2023-04-24T04:53:53;12.80;99.90
16174;DHT22;14031;50.158;8.626;2023-04-24T04:56:20;12.60;99.90
16174;DHT22;14031;50.158;8.626;2023-04-24T04:58:49;12.50;99.90
16174;DHT22;14031;50.158;8.626;2023-04-24T05:01:20;12.50;99.90
16174;DHT22;14031;50.158;8.626;2023-04-24T05:03:48;12.50;99.90
16174;DHT22;14031;50.158;8.626;2023-04-24T05:06:16;12.50;99.90
16174;DHT22;14031;50.158;8.626;2023-04-24T05:08:43;12.60;99.90
16174;DHT22;14031;50.158;8.626;2023-04-24T05:11:10;12.50;99.90
16174;DHT22;14031;50.158;8.626;2023-04-24T05:13:36;12.40;99.90
16174;DHT22;14031;50.158;8.626;2023-04-24T05:16:04;12.40;99.90
16174;DHT22;14031;50.158;8.626;2023-04-24T05:18:30;12.40;99.90
16174;DHT22;14031;50.158;8.626;2023-04-24T05:20:57;12.40;99.90
16174;DHT22;14031;50.158;8.626;2023-04-24T05:23:25;12.40;99.90
16174;DHT22;14031;50.158;8.626;2023-04-24T05:25:52;12.60;99.90
16174;DHT22;14031;50.158;8.626;2023-04-24T05:28:21;12.60;99.90
16174;DHT22;14031;50.158;8.626;2023-04-24T05:30:47;12.40;99.90
16174;DHT22;14031;50.158;8.626;2023-04-24T05:33:14;12.50;99.90
16174;DHT22;14031;50.158;8.626;2023-04-24T05:35:41;12.40;99.90
16174;DHT22;14031;50.158;8.626;2023-04-24T05:38:11;12.40;99.90
16174;DHT22;14031;50.158;8.626;2023-04-24T05:40:43;12.40;99.90
16174;DHT22;14031;50.158;8.626;2023-04-24T05:43:10;12.40;99.90
16174;DHT22;14031;50.158;8.626;2023-04-24T05:45:36;12.40;99.90
16174;DHT22;14031;50.158;8.626;2023-04-24T05:48:04;12.40;99.90
16174;DHT22;14031;50.158;8.626;2023-04-24T05:50:31;12.30;99.90
16174;DHT22;14031;50.158;8.626;2023-04-24T05:52:57;12.40;99.90
16174;DHT22;14031;50.158;8.626;2023-04-24T05:55:24;12.40;99.90
16174;DHT22;14031;50.158;8.626;2023-04-24T05:57:53;12.50;99.90
16174;DHT22;14031;50.158;8.626;2023-04-24T06:00:20;12.50;99.90
16174;DHT22;14031;50.158;8.626;2023-04-24T06:02:47;12.60;99.90
16174;DHT22;14031;50.158;8.626;2023-04-24T06:05:14;12.60;99.90
16174;DHT22;14031;50.158;8.626;2023-04-24T06:07:41;12.60;99.90
16174;DHT22;14031;50.158;8.626;2023-04-24T06:10:09;12.50;99.90
16174;DHT22;14031;50.158;8.626;2023-04-24T06:12:36;12.50;99.90
16174;DHT22;14031;50.158;8.626;2023-04-24T06:15:05;12.50;99.90
16174;DHT22;14031;50.158;8.626;2023-04-24T06:17:32;12.50;99.90
16174;DHT22;14031;50.158;8.626;2023-04-24T06:19:59;12.40;99.90
16174;DHT22;14031;50.158;8.626;2023-04-24T06:22:26;12.50;99.90
16174;DHT22;14031;50.158;8.626;2023-04-24T06:24:52;12.60;99.90
16174;DHT22;14031;50.158;8.626;2023-04-24T06:27:19;12.50;99.90
16174;DHT22;14031;50.158;8.626;2023-04-24T06:29:46;12.50;99.90
16174;DHT22;14031;50.158;8.626;2023-04-24T06:32:19;12.50;99.90
16174;DHT22;14031;50.158;8.626;2023-04-24T06:34:46;12.60;99.90
16174;DHT22;14031;50.158;8.626;2023-04-24T06:37:13;12.50;99.90
16174;DHT22;14031;50.158;8.626;2023-04-24T06:39:41;12.40;99.90
16174;DHT22;14031;50.158;8.626;2023-04-24T06:42:07;12.50;99.90
16174;DHT22;14031;50.158;8.626;2023-04-24T06:44:35;12.40;99.90
16174;DHT22;14031;50.158;8.626;2023-04-24T06:47:06;12.40;99.90
16174;DHT22;14031;50.158;8.626;2023-04-24T06:49:35;12.40;99.90
16174;DHT22;14031;50.158;8.626;2023-04-24T06:52:01;12.50;99.90
16174;DHT22;14031;50.158;8.626;2023-04-24T06:54:28;12.60;99.90
16174;DHT22;14031;50.158;8.626;2023-04-24T06:56:55;12.70;99.90
16174;DHT22;14031;50.158;8.626;2023-04-24T06:59:22;12.70;99.90
16174;DHT22;14031;50.158;8.626;2023-04-24T07:01:49;12.80;99.90
16174;DHT22;14031;50.158;8.626;2023-04-24T07:04:16;12.80;99.90
16174;DHT22;14031;50.158;8.626;2023-04-24T07:06:45;12.90;99.90
16174;DHT22;14031;50.158;8.626;2023-04-24T07:09:12;12.80;99.90
16174;DHT22;14031;50.158;8.626;2023-04-24T07:11:41;12.80;99.90
16174;DHT22;14031;50.158;8.626;2023-04-24T07:14:08;12.90;99.90
16174;DHT22;14031;50.158;8.626;2023-04-24T07:16:35;12.90;99.90
16174;DHT22;14031;50.158;8.626;2023-04-24T07:19:02;12.80;99.90
16174;DHT22;14031;50.158;8.626;2023-04-24T07:21:29;12.90;99.90
16174;DHT22;14031;50.158;8.626;2023-04-24T07:23:58;12.90;99.90
16174;DHT22;14031;50.158;8.626;2023-04-24T07:26:25;12.90;99.90
16174;DHT22;14031;50.158;8.626;2023-04-24T07:28:52;13.00;99.90
16174;DHT22;14031;50.158;8.626;2023-04-24T07:31:19;13.10;99.90
16174;DHT22;14031;50.158;8.626;2023-04-24T07:33:46;13.20;99.90
16174;DHT22;14031;50.158;8.626;2023-04-24T07:36:13;13.20;99.90
16174;DHT22;14031;50.158;8.626;2023-04-24T07:38:44;13.30;99.90
16174;DHT22;14031;50.158;8.626;2023-04-24T07:41:12;13.20;99.90
16174;DHT22;14031;50.158;8.626;2023-04-24T07:43:39;13.20;99.90
16174;DHT22;14031;50.158;8.626;2023-04-24T07:46:06;13.30;99.90
16174;DHT22;14031;50.158;8.626;2023-04-24T07:48:33;13.40;99.90
16174;DHT22;14031;50.158;8.626;2023-04-24T07:51:00;13.40;99.90
16174;DHT22;14031;50.158;8.626;2023-04-24T07:53:27;13.60;99.90
16174;DHT22;14031;50.158;8.626;2023-04-24T07:55:54;13.60;99.90
16174;DHT22;14031;50.158;8.626;2023-04-24T07:58:22;13.60;99.90
16174;DHT22;14031;50.158;8.626;2023-04-24T08:00:49;13.60;99.90
16174;DHT22;14031;50.158;8.626;2023-04-24T08:03:16;13.70;99.90
16174;DHT22;14031;50.158;8.626;2023-04-24T08:05:45;13.80;99.90
16174;DHT22;14031;50.158;8.626;2023-04-24T08:08:11;14.00;99.90
16174;DHT22;14031;50.158;8.626;2023-04-24T08:10:38;14.10;99.90
16174;DHT22;14031;50.158;8.626;2023-04-24T08:13:05;14.10;99.90
16174;DHT22;14031;50.158;8.626;2023-04-24T08:15:33;14.20;99.90
16174;DHT22;14031;50.158;8.626;2023-04-24T08:18:00;14.10;99.90
16174;DHT22;14031;50.158;8.626;2023-04-24T08:20:27;14.00;99.90
16174;DHT22;14031;50.158;8.626;2023-04-24T08:22:54;14.20;99.90
16174;DHT22;14031;50.158;8.626;2023-04-24T08:25:21;14.20;99.90
16174;DHT22;14031;50.158;8.626;2023-04-24T08:27:50;14.20;99.90
16174;DHT22;14031;50.158;8.626;2023-04-24T08:30:17;14.30;99.90
16174;DHT22;14031;50.158;8.626;2023-04-24T08:32:45;14.30;99.90
16174;DHT22;14031;50.158;8.626;2023-04-24T08:35:12;14.40;99.90
16174;DHT22;14031;50.158;8.626;2023-04-24T08:37:39;14.40;99.90
16174;DHT22;14031;50.158;8.626;2023-04-24T08:40:12;14.60;99.90
16174;DHT22;14031;50.158;8.626;2023-04-24T08:42:39;14.70;99.90
16174;DHT22;14031;50.158;8.626;2023-04-24T08:45:09;14.70;99.90
16174;DHT22;14031;50.158;8.626;2023-04-24T08:47:37;14.70;99.90
16174;DHT22;14031;50.158;8.626;2023-04-24T08:50:07;14.50;99.90
16174;DHT22;14031;50.158;8.626;2023-04-24T08:52:35;14.50;99.90
16174;DHT22;14031;50.158;8.626;2023-04-24T08:55:02;14.40;99.90
16174;DHT22;14031;50.158;8.626;2023-04-24T08:57:29;14.30;99.90
16174;DHT22;14031;50.158;8.626;2023-04-24T08:59:58;14.20;99.90
16174;DHT22;14031;50.158;8.626;2023-04-24T09:02:25;14.10;99.90
16174;DHT22;14031;50.158;8.626;2023-04-24T09:04:53;14.00;99.90
16174;DHT22;14031;50.158;8.626;2023-04-24T09:07:22;13.90;99.90
16174;DHT22;14031;50.158;8.626;2023-04-24T09:09:51;13.80;99.90
16174;DHT22;14031;50.158;8.626;2023-04-24T09:12:19;13.70;99.90
16174;DHT22;14031;50.158;8.626;2023-04-24T09:14:46;13.70;99.90
16174;DHT22;14031;50.158;8.626;2023-04-24T09:17:14;13.70;99.90
16174;DHT22;14031;50.158;8.626;2023-04-24T09:19:41;13.70;99.90
16174;DHT22;14031;50.158;8.626;2023-04-24T09:22:09;13.80;99.90
16174;DHT22;14031;50.158;8.626;2023-04-24T09:24:38;13.80;99.90
16174;DHT22;14031;50.158;8.626;2023-04-24T09:27:05;13.80;99.90
16174;DHT22;14031;50.158;8.626;2023-04-24T09:29:33;13.90;99.90
16174;DHT22;14031;50.158;8.626;2023-04-24T09:32:18;13.80;99.90
16174;DHT22;14031;50.158;8.626;2023-04-24T09:34:47;13.80;99.90
16174;DHT22;14031;50.158;8.626;2023-04-24T09:37:29;13.90;99.90
16174;DHT22;14031;50.158;8.626;2023-04-24T09:40:11;13.90;99.90
16174;DHT22;14031;50.158;8.626;2023-04-24T09:42:38;14.00;99.90
16174;DHT22;14031;50.158;8.626;2023-04-24T09:45:09;14.00;99.90
16174;DHT22;14031;50.158;8.626;2023-04-24T09:47:37;14.00;99.90
16174;DHT22;14031;50.158;8.626;2023-04-24T09:50:12;14.00;99.90
16174;DHT22;14031;50.158;8.626;2023-04-24T09:52:43;13.90;99.90
16174;DHT22;14031;50.158;8.626;2023-04-24T09:55:16;13.90;99.90
16174;DHT22;14031;50.158;8.626;2023-04-24T09:57:54;13.90;99.90
16174;DHT22;14031;50.158;8.626;2023-04-24T10:00:23;13.80;99.90
16174;DHT22;14031;50.158;8.626;2023-04-24T10:02:54;13.80;99.90
16174;DHT22;14031;50.158;8.626;2023-04-24T10:05:24;13.90;99.90
16174;DHT22;14031;50.158;8.626;2023-04-24T10:07:51;13.90;99.90
16174;DHT22;14031;50.158;8.626;2023-04-24T10:10:19;14.00;99.90
16174;DHT22;14031;50.158;8.626;2023-04-24T10:12:47;14.20;99.90
16174;DHT22;14031;50.158;8.626;2023-04-24T10:15:15;14.20;99.90
16174;DHT22;14031;50.158;8.626;2023-04-24T10:17:47;14.30;99.90
16174;DHT22;14031;50.158;8.626;2023-04-24T10:20:21;14.40;99.90
16174;DHT22;14031;50.158;8.626;2023-04-24T10:22:50;14.40;99.90
16174;DHT22;14031;50.158;8.626;2023-04-24T10:25:20;14.50;99.90
16174;DHT22;14031;50.158;8.626;2023-04-24T10:27:49;14.30;99.90
16174;DHT22;14031;50.158;8.626;2023-04-24T10:30:16;14.20;99.90
16174;DHT22;14031;50.158;8.626;2023-04-24T10:32:43;14.10;99.90
16174;DHT22;14031;50.158;8.626;2023-04-24T10:35:12;14.00;99.90
16174;DHT22;14031;50.158;8.626;2023-04-24T10:37:42;13.50;99.90
16174;DHT22;14031;50.158;8.626;2023-04-24T10:40:10;13.60;99.90
16174;DHT22;14031;50.158;8.626;2023-04-24T10:42:41;13.50;99.90
16174;DHT22;14031;50.158;8.626;2023-04-24T10:45:16;13.40;99.90
16174;DHT22;14031;50.158;8.626;2023-04-24T10:47:51;13.30;99.90
16174;DHT22;14031;50.158;8.626;2023-04-24T10:50:18;13.30;99.90
16174;DHT22;14031;50.158;8.626;2023-04-24T10:52:46;13.30;99.90
16174;DHT22;14031;50.158;8.626;2023-04-24T10:55:13;13.40;99.90
16174;DHT22;14031;50.158;8.626;2023-04-24T10:58:01;13.60;99.90
16174;DHT22;14031;50.158;8.626;2023-04-24T11:00:29;13.90;99.90
16174;DHT22;14031;50.158;8.626;2023-04-24T11:02:56;14.10;99.90
16174;DHT22;14031;50.158;8.626;2023-04-24T11:05:50;14.30;99.90
16174;DHT22;14031;50.158;8.626;2023-04-24T11:08:26;14.50;99.90
16174;DHT22;14031;50.158;8.626;2023-04-24T11:11:02;14.60;99.90
16174;DHT22;14031;50.158;8.626;2023-04-24T11:16:32;14.90;99.90
16174;DHT22;14031;50.158;8.626;2023-04-24T11:19:01;14.80;99.90
16174;DHT22;14031;50.158;8.626;2023-04-24T11:21:31;14.90;99.90
16174;DHT22;14031;50.158;8.626;2023-04-24T11:23:58;15.10;99.90
16174;DHT22;14031;50.158;8.626;2023-04-24T11:26:45;15.00;99.90
16174;DHT22;14031;50.158;8.626;2023-04-24T11:29:12;15.10;99.90
16174;DHT22;14031;50.158;8.626;2023-04-24T11:31:41;15.10;99.90
16174;DHT22;14031;50.158;8.626;2023-04-24T11:34:14;15.30;99.90
16174;DHT22;14031;50.158;8.626;2023-04-24T11:36:43;15.30;99.90
16174;DHT22;14031;50.158;8.626;2023-04-24T11:39:10;15.20;99.90
16174;DHT22;14031;50.158;8.626;2023-04-24T11:41:37;15.10;99.90
16174;DHT22;14031;50.158;8.626;2023-04-24T11:44:06;15.00;99.90
16174;DHT22;14031;50.158;8.626;2023-04-24T11:46:33;14.80;99.90
16174;DHT22;14031;50.158;8.626;2023-04-24T11:49:02;14.80;99.90
16174;DHT22;14031;50.158;8.626;2023-04-24T11:51:28;14.60;99.90
16174;DHT22;14031;50.158;8.626;2023-04-24T11:53:57;14.50;99.90
16174;DHT22;14031;50.158;8.626;2023-04-24T11:56:24;14.60;99.90
16174;DHT22;14031;50.158;8.626;2023-04-24T11:58:52;14.70;99.90
16174;DHT22;14031;50.158;8.626;2023-04-24T12:01:19;14.90;99.90
16174;DHT22;14031;50.158;8.626;2023-04-24T12:03:48;15.00;99.90
16174;DHT22;14031;50.158;8.626;2023-04-24T12:06:18;15.20;99.90
16174;DHT22;14031;50.158;8.626;2023-04-24T12:08:48;14.80;99.90
16174;DHT22;14031;50.158;8.626;2023-04-24T12:11:16;14.80;99.90
16174;DHT22;14031;50.158;8.626;2023-04-24T12:13:44;14.80;99.90
16174;DHT22;14031;50.158;8.626;2023-04-24T12:16:11;14.80;99.90
16174;DHT22;14031;50.158;8.626;2023-04-24T12:18:42;14.70;99.90
16174;DHT22;14031;50.158;8.626;2023-04-24T12:21:19;14.60;99.90
16174;DHT22;14031;50.158;8.626;2023-04-24T12:23:46;14.10;99.90
16174;DHT22;14031;50.158;8.626;2023-04-24T12:26:16;13.80;99.90
16174;DHT22;14031;50.158;8.626;2023-04-24T12:28:47;13.60;99.90
16174;DHT22;14031;50.158;8.626;2023-04-24T12:31:15;13.60;99.90
16174;DHT22;14031;50.158;8.626;2023-04-24T12:33:42;13.60;99.90
16174;DHT22;14031;50.158;8.626;2023-04-24T12:36:10;13.80;99.90
16174;DHT22;14031;50.158;8.626;2023-04-24T12:38:39;14.10;99.90
16174;DHT22;14031;50.158;8.626;2023-04-24T12:41:11;14.40;99.90
16174;DHT22;14031;50.158;8.626;2023-04-24T12:43:38;14.70;99.90
16174;DHT22;14031;50.158;8.626;2023-04-24T12:46:05;14.80;99.90
16174;DHT22;14031;50.158;8.626;2023-04-24T12:48:32;14.90;99.90
16174;DHT22;14031;50.158;8.626;2023-04-24T12:50:59;15.10;99.90
16174;DHT22;14031;50.158;8.626;2023-04-24T12:53:27;15.10;99.90
16174;DHT22;14031;50.158;8.626;2023-04-24T12:55:58;15.20;99.90
16174;DHT22;14031;50.158;8.626;2023-04-24T12:58:24;15.30;99.90
16174;DHT22;14031;50.158;8.626;2023-04-24T13:00:51;15.40;99.90
16174;DHT22;14031;50.158;8.626;2023-04-24T13:03:18;15.50;99.90
16174;DHT22;14031;50.158;8.626;2023-04-24T13:05:45;15.80;99.90
16174;DHT22;14031;50.158;8.626;2023-04-24T13:08:12;16.20;99.90
16174;DHT22;14031;50.158;8.626;2023-04-24T13:10:39;16.30;99.90
16174;DHT22;14031;50.158;8.626;2023-04-24T13:13:08;16.40;99.90
16174;DHT22;14031;50.158;8.626;2023-04-24T13:15:35;16.40;99.90
16174;DHT22;14031;50.158;8.626;2023-04-24T13:18:02;16.40;99.90
16174;DHT22;14031;50.158;8.626;2023-04-24T13:20:29;16.30;99.90
16174;DHT22;14031;50.158;8.626;2023-04-24T13:22:56;16.10;99.90
16174;DHT22;14031;50.158;8.626;2023-04-24T13:25:22;15.90;99.90
16174;DHT22;14031;50.158;8.626;2023-04-24T13:27:50;15.50;99.90
16174;DHT22;14031;50.158;8.626;2023-04-24T13:30:18;15.60;99.90
16174;DHT22;14031;50.158;8.626;2023-04-24T13:32:45;15.50;99.90
16174;DHT22;14031;50.158;8.626;2023-04-24T13:35:12;15.30;99.90
16174;DHT22;14031;50.158;8.626;2023-04-24T13:37:39;14.80;99.90
16174;DHT22;14031;50.158;8.626;2023-04-24T13:40:07;14.50;99.90
16174;DHT22;14031;50.158;8.626;2023-04-24T13:42:34;14.10;99.90
16174;DHT22;14031;50.158;8.626;2023-04-24T13:45:02;14.00;99.90
16174;DHT22;14031;50.158;8.626;2023-04-24T13:47:31;14.40;99.90
16174;DHT22;14031;50.158;8.626;2023-04-24T13:49:58;14.60;99.90
16174;DHT22;14031;50.158;8.626;2023-04-24T13:52:24;14.70;99.90
16174;DHT22;14031;50.158;8.626;2023-04-24T13:54:51;15.00;99.90
16174;DHT22;14031;50.158;8.626;2023-04-24T13:57:18;15.10;99.90
16174;DHT22;14031;50.158;8.626;2023-04-24T13:59:45;15.00;99.90
16174;DHT22;14031;50.158;8.626;2023-04-24T14:02:12;15.00;99.90
16174;DHT22;14031;50.158;8.626;2023-04-24T14:04:40;15.00;99.90
16174;DHT22;14031;50.158;8.626;2023-04-24T14:07:25;15.00;99.90
16174;DHT22;14031;50.158;8.626;2023-04-24T14:09:52;15.50;99.90
16174;DHT22;14031;50.158;8.626;2023-04-24T14:12:19;16.40;99.90
16174;DHT22;14031;50.158;8.626;2023-04-24T14:14:46;17.40;99.90
16174;DHT22;14031;50.158;8.626;2023-04-24T14:17:13;18.50;99.90
16174;DHT22;14031;50.158;8.626;2023-04-24T14:19:46;18.70;99.90
16174;DHT22;14031;50.158;8.626;2023-04-24T14:22:13;18.90;99.90
16174;DHT22;14031;50.158;8.626;2023-04-24T14:24:42;19.60;99.90
16174;DHT22;14031;50.158;8.626;2023-04-24T14:27:09;19.80;99.90
16174;DHT22;14031;50.158;8.626;2023-04-24T14:29:35;19.60;99.90
16174;DHT22;14031;50.158;8.626;2023-04-24T14:32:02;19.10;99.90
16174;DHT22;14031;50.158;8.626;2023-04-24T14:34:29;18.30;99.90
16174;DHT22;14031;50.158;8.626;2023-04-24T14:36:57;17.70;99.90
16174;DHT22;14031;50.158;8.626;2023-04-24T14:39:28;17.40;99.90
16174;DHT22;14031;50.158;8.626;2023-04-24T14:41:57;16.90;99.90
16174;DHT22;14031;50.158;8.626;2023-04-24T14:44:27;16.40;99.90
16174;DHT22;14031;50.158;8.626;2023-04-24T14:46:56;16.10;99.90
16174;DHT22;14031;50.158;8.626;2023-04-24T14:49:23;15.90;99.90
16174;DHT22;14031;50.158;8.626;2023-04-24T14:51:52;15.80;99.90
16174;DHT22;14031;50.158;8.626;2023-04-24T14:54:20;15.80;99.90
16174;DHT22;14031;50.158;8.626;2023-04-24T14:56:48;15.90;99.90
16174;DHT22;14031;50.158;8.626;2023-04-24T14:59:15;15.90;99.90
16174;DHT22;14031;50.158;8.626;2023-04-24T15:01:42;16.50;99.90
16174;DHT22;14031;50.158;8.626;2023-04-24T15:04:09;16.80;99.90
16174;DHT22;14031;50.158;8.626;2023-04-24T15:06:35;17.00;99.90
16174;DHT22;14031;50.158;8.626;2023-04-24T15:09:02;17.10;99.90
16174;DHT22;14031;50.158;8.626;2023-04-24T15:11:30;17.00;99.90
16174;DHT22;14031;50.158;8.626;2023-04-24T15:13:58;16.90;99.90
16174;DHT22;14031;50.158;8.626;2023-04-24T15:16:25;17.00;99.90
16174;DHT22;14031;50.158;8.626;2023-04-24T15:18:52;16.70;99.90
16174;DHT22;14031;50.158;8.626;2023-04-24T15:21:19;16.50;99.90
16174;DHT22;14031;50.158;8.626;2023-04-24T15:23:45;16.30;99.90
16174;DHT22;14031;50.158;8.626;2023-04-24T15:26:12;16.10;99.90
16174;DHT22;14031;50.158;8.626;2023-04-24T15:28:40;15.90;99.90
16174;DHT22;14031;50.158;8.626;2023-04-24T15:31:07;15.90;99.90
16174;DHT22;14031;50.158;8.626;2023-04-24T15:33:34;15.80;99.90
16174;DHT22;14031;50.158;8.626;2023-04-24T15:36:01;15.80;99.90
16174;DHT22;14031;50.158;8.626;2023-04-24T15:38:27;15.80;99.90